sensor_id;sensor_type;location;lat;lon;timestamp;P1;durP1;ratioP1;P2;durP2;ratioP2
36253;SDS011;22291;52.250;21.228;2023-06-26T21:28:57;60.38;;;37.28;;
36253;SDS011;22291;52.250;21.228;2023-06-26T21:31:23;45.52;;;27.13;;
36253;SDS011;22291;52.250;21.228;2023-06-26T21:33:49;30.00;;;18.92;;
36253;SDS011;22291;52.250;21.228;2023-06-26T21:36:15;25.50;;;13.93;;
36253;SDS011;22291;52.250;21.228;2023-06-26T21:38:41;22.32;;;12.07;;
36253;SDS011;22291;52.250;21.228;2023-06-26T21:41:08;22.30;;;12.25;;
36253;SDS011;22291;52.250;21.228;2023-06-26T21:43:35;26.85;;;15.98;;
36253;SDS011;22291;52.250;21.228;2023-06-26T21:46:04;36.53;;;19.20;;
36253;SDS011;22291;52.250;21.228;2023-06-26T21:48:30;40.78;;;20.25;;
36253;SDS011;22291;52.250;21.228;2023-06-26T21:50:56;38.70;;;19.30;;
36253;SDS011;22291;52.250;21.228;2023-06-26T21:53:24;31.42;;;14.87;;
36253;SDS011;22291;52.250;21.228;2023-06-26T21:55:50;36.77;;;15.60;;
36253;SDS011;22291;52.250;21.228;2023-06-26T21:58:16;30.00;;;13.05;;
36253;SDS011;22291;52.250;21.228;2023-06-26T22:00:42;20.48;;;13.08;;
36253;SDS011;22291;52.250;21.228;2023-06-26T22:03:09;29.72;;;13.08;;
36253;SDS011;22291;52.250;21.228;2023-06-26T22:05:37;26.35;;;13.50;;
36253;SDS011;22291;52.250;21.228;2023-06-26T22:08:05;30.97;;;13.98;;
36253;SDS011;22291;52.250;21.228;2023-06-26T22:10:35;24.72;;;13.32;;
36253;SDS011;22291;52.250;21.228;2023-06-26T22:13:02;21.17;;;11.90;;
36253;SDS011;22291;52.250;21.228;2023-06-26T22:15:30;22.55;;;11.97;;
36253;SDS011;22291;52.250;21.228;2023-06-26T22:17:56;30.82;;;14.35;;
36253;SDS011;22291;52.250;21.228;2023-06-26T22:20:23;23.42;;;12.45;;
36253;SDS011;22291;52.250;21.228;2023-06-26T22:25:21;21.25;;;12.35;;
36253;SDS011;22291;52.250;21.228;2023-06-26T22:27:49;27.40;;;12.05;;
36253;SDS011;22291;52.250;21.228;2023-06-26T22:30:20;28.80;;;12.95;;
36253;SDS011;22291;52.250;21.228;2023-06-26T22:32:50;28.73;;;13.68;;
36253;SDS011;22291;52.250;21.228;2023-06-26T22:35:18;23.10;;;12.43;;
36253;SDS011;22291;52.250;21.228;2023-06-26T22:37:48;23.07;;;12.68;;
36253;SDS011;22291;52.250;21.228;2023-06-26T22:40:14;25.52;;;12.45;;
36253;SDS011;22291;52.250;21.228;2023-06-26T22:42:42;29.20;;;13.85;;
36253;SDS011;22291;52.250;21.228;2023-06-26T22:45:11;27.27;;;13.25;;
36253;SDS011;22291;52.250;21.228;2023-06-26T22:47:40;24.65;;;13.38;;
36253;SDS011;22291;52.250;21.228;2023-06-26T22:50:10;29.00;;;13.22;;
36253;SDS011;22291;52.250;21.228;2023-06-26T22:55:09;22.48;;;13.03;;
36253;SDS011;22291;52.250;21.228;2023-06-26T22:57:36;22.65;;;13.68;;
36253;SDS011;22291;52.250;21.228;2023-06-26T23:00:07;24.90;;;13.58;;
36253;SDS011;22291;52.250;21.228;2023-06-26T23:02:35;30.08;;;13.22;;
36253;SDS011;22291;52.250;21.228;2023-06-26T23:05:05;29.55;;;14.03;;
36253;SDS011;22291;52.250;21.228;2023-06-26T23:07:35;23.52;;;14.07;;
36253;SDS011;22291;52.250;21.228;2023-06-26T23:10:09;30.60;;;13.45;;
36253;SDS011;22291;52.250;21.228;2023-06-26T23:12:36;33.02;;;14.23;;
36253;SDS011;22291;52.250;21.228;2023-06-26T23:15:05;21.10;;;12.50;;
36253;SDS011;22291;52.250;21.228;2023-06-26T23:17:33;31.93;;;15.60;;
36253;SDS011;22291;52.250;21.228;2023-06-26T23:20:01;33.02;;;14.68;;
36253;SDS011;22291;52.250;21.228;2023-06-26T23:22:31;26.10;;;14.70;;
36253;SDS011;22291;52.250;21.228;2023-06-26T23:24:59;29.67;;;14.13;;
36253;SDS011;22291;52.250;21.228;2023-06-26T23:27:29;22.42;;;13.72;;
36253;SDS011;22291;52.250;21.228;2023-06-26T23:29:57;22.15;;;12.85;;
36253;SDS011;22291;52.250;21.228;2023-06-26T23:32:24;24.85;;;13.55;;
36253;SDS011;22291;52.250;21.228;2023-06-26T23:34:51;24.32;;;14.30;;
36253;SDS011;22291;52.250;21.228;2023-06-26T23:37:20;24.77;;;12.95;;
36253;SDS011;22291;52.250;21.228;2023-06-26T23:39:54;22.40;;;13.13;;
36253;SDS011;22291;52.250;21.228;2023-06-26T23:42:20;20.17;;;11.95;;
36253;SDS011;22291;52.250;21.228;2023-06-26T23:44:46;25.65;;;11.25;;
36253;SDS011;22291;52.250;21.228;2023-06-26T23:47:14;19.75;;;11.93;;
36253;SDS011;22291;52.250;21.228;2023-06-26T23:49:44;25.17;;;12.45;;
36253;SDS011;22291;52.250;21.228;2023-06-26T23:52:12;16.95;;;10.30;;
36253;SDS011;22291;52.250;21.228;2023-06-26T23:54:38;22.80;;;11.43;;
36253;SDS011;22291;52.250;21.228;2023-06-26T23:57:06;22.40;;;11.80;;
36253;SDS011;22291;52.250;21.228;2023-06-26T23:59:34;25.37;;;12.35;;
